createdAt,value
2018-04-26T00:02:25.598Z,4.57
2018-04-26T00:04:53.851Z,4.53
2018-04-26T00:07:22.148Z,4.40
2018-04-26T00:09:50.406Z,4.53
2018-04-26T00:12:18.712Z,4.30
2018-04-26T00:14:46.959Z,4.93
2018-04-26T00:17:15.275Z,5.37
2018-04-26T00:19:43.526Z,5.37
2018-04-26T00:22:11.824Z,5.50
2018-04-26T00:24:40.070Z,5.23
2018-04-26T00:27:08.375Z,5.93
2018-04-26T00:29:36.604Z,6.07
2018-04-26T00:32:04.880Z,6.40
2018-04-26T00:34:33.149Z,5.40
2018-04-26T00:37:01.434Z,5.40
2018-04-26T00:39:29.697Z,5.70
2018-04-26T00:41:57.993Z,5.77
2018-04-26T00:44:26.275Z,5.90
2018-04-26T00:46:54.555Z,5.70
2018-04-26T00:49:22.879Z,5.80
2018-04-26T00:52:01.146Z,6.10
2018-04-26T00:54:30.315Z,5.70
2018-04-26T00:56:58.578Z,5.77
2018-04-26T00:59:26.951Z,6.07
2018-04-26T01:01:55.199Z,5.40
2018-04-26T01:04:23.606Z,5.37
2018-04-26T01:06:51.854Z,5.30
2018-04-26T01:09:20.140Z,5.27
2018-04-26T01:11:48.431Z,5.10
2018-04-26T01:14:16.719Z,5.40
2018-04-26T01:16:45.003Z,5.73
2018-04-26T01:19:13.305Z,5.10
2018-04-26T01:21:41.555Z,5.70
2018-04-26T01:24:09.899Z,5.63
2018-04-26T01:26:38.182Z,5.60
2018-04-26T01:29:06.454Z,5.47
2018-04-26T01:31:34.734Z,5.87
2018-04-26T01:34:03.001Z,5.73
2018-04-26T01:36:43.396Z,5.30
2018-04-26T01:39:11.648Z,5.40
2018-04-26T01:41:39.956Z,5.50
2018-04-26T01:44:08.232Z,6.27
2018-04-26T01:46:36.546Z,5.30
2018-04-26T01:49:04.834Z,5.00
2018-04-26T01:51:33.110Z,4.87
2018-04-26T01:54:01.417Z,5.40
2018-04-26T01:56:29.690Z,5.83
2018-04-26T01:58:57.962Z,4.57
2018-04-26T02:01:26.224Z,5.60
2018-04-26T02:03:54.494Z,4.97
2018-04-26T02:06:22.790Z,5.07
2018-04-26T02:08:51.037Z,5.30
2018-04-26T02:11:19.326Z,5.07
2018-04-26T02:13:47.666Z,5.67
2018-04-26T02:16:15.914Z,5.10
2018-04-26T02:18:44.195Z,5.97
2018-04-26T02:21:12.457Z,5.93
2018-04-26T02:23:41.554Z,5.60
2018-04-26T02:26:09.826Z,5.40
2018-04-26T02:28:38.105Z,5.90
2018-04-26T02:31:06.358Z,6.37
2018-04-26T02:33:34.629Z,6.87
2018-04-26T02:36:02.898Z,6.50
2018-04-26T02:38:31.203Z,6.80
2018-04-26T02:40:59.451Z,5.67
2018-04-26T02:43:27.754Z,6.60
2018-04-26T02:45:56.010Z,5.93
2018-04-26T02:48:24.377Z,6.50
2018-04-26T02:50:52.643Z,6.63
2018-04-26T02:53:20.933Z,6.30
2018-04-26T02:55:49.192Z,5.83
2018-04-26T02:58:17.539Z,6.33
2018-04-26T03:00:45.783Z,6.27
2018-04-26T03:03:14.066Z,6.20
2018-04-26T03:05:42.381Z,5.67
2018-04-26T03:08:10.699Z,5.87
2018-04-26T03:10:38.959Z,5.97
2018-04-26T03:13:07.250Z,5.37
2018-04-26T03:15:35.520Z,6.70
2018-04-26T03:18:03.877Z,6.03
2018-04-26T03:20:32.143Z,6.10
2018-04-26T03:23:00.431Z,5.73
2018-04-26T03:25:28.721Z,5.77
2018-04-26T03:27:57.001Z,5.83
2018-04-26T03:30:25.296Z,5.70
2018-04-26T03:32:53.579Z,5.83
2018-04-26T03:35:22.019Z,6.23
2018-04-26T03:37:50.281Z,6.20
2018-04-26T03:40:18.600Z,5.70
2018-04-26T03:42:46.856Z,6.43
2018-04-26T03:45:15.149Z,5.80
2018-04-26T03:47:43.394Z,6.27
2018-04-26T03:50:11.678Z,6.20
2018-04-26T03:52:39.970Z,5.70
2018-04-26T03:55:08.239Z,6.07
2018-04-26T03:57:36.526Z,5.67
2018-04-26T04:00:16.507Z,5.57
2018-04-26T04:02:56.724Z,6.03
2018-04-26T04:05:36.686Z,6.07
2018-04-26T04:08:04.995Z,5.77
2018-04-26T04:10:33.246Z,5.80
2018-04-26T04:13:01.518Z,5.80
2018-04-26T04:15:29.766Z,5.43
2018-04-26T04:17:58.050Z,4.90
2018-04-26T04:20:26.322Z,5.30
2018-04-26T04:22:54.617Z,5.60
2018-04-26T04:25:22.890Z,5.60
2018-04-26T04:27:51.208Z,4.90
2018-04-26T04:30:19.473Z,5.00
2018-04-26T04:32:47.727Z,5.07
2018-04-26T04:35:16.020Z,5.30
2018-04-26T04:37:44.302Z,5.53
2018-04-26T04:40:12.582Z,5.43
2018-04-26T04:42:40.873Z,5.77
2018-04-26T04:45:09.155Z,5.07
2018-04-26T04:47:37.516Z,5.33
2018-04-26T04:50:05.795Z,5.20
2018-04-26T04:52:34.105Z,4.83
2018-04-26T04:55:02.381Z,5.00
2018-04-26T04:57:30.658Z,4.73
2018-04-26T04:59:59.780Z,5.00
2018-04-26T05:02:28.034Z,5.00
2018-04-26T05:04:56.310Z,4.60
2018-04-26T05:07:24.727Z,4.73
2018-04-26T05:09:53.242Z,4.73
2018-04-26T05:12:21.494Z,4.40
2018-04-26T05:14:49.809Z,6.73
2018-04-26T05:17:19.091Z,4.60
2018-04-26T05:19:47.440Z,5.00
2018-04-26T05:22:15.642Z,4.40
2018-04-26T05:24:43.948Z,5.17
2018-04-26T05:27:12.234Z,4.67
2018-04-26T05:29:40.556Z,4.67
2018-04-26T05:32:08.857Z,4.50
2018-04-26T05:34:37.151Z,4.70
2018-04-26T05:37:05.434Z,4.33
2018-04-26T05:39:33.857Z,5.00
2018-04-26T05:42:02.417Z,4.33
2018-04-26T05:44:30.725Z,4.40
2018-04-26T05:46:59.006Z,4.90
2018-04-26T05:49:27.347Z,3.77
2018-04-26T05:51:55.664Z,3.87
2018-04-26T05:54:23.918Z,4.70
2018-04-26T05:56:52.215Z,3.23
2018-04-26T05:59:20.494Z,3.60
2018-04-26T06:01:48.781Z,3.40
2018-04-26T06:04:17.077Z,3.60
2018-04-26T06:06:45.387Z,4.13
2018-04-26T06:11:48.112Z,3.40
2018-04-26T06:14:16.395Z,3.33
2018-04-26T06:16:44.794Z,3.90
2018-04-26T06:19:13.054Z,3.37
2018-04-26T06:21:41.359Z,3.83
2018-04-26T06:24:09.661Z,3.40
2018-04-26T06:26:38.016Z,3.53
2018-04-26T06:29:06.256Z,3.70
2018-04-26T06:31:34.506Z,3.50
2018-04-26T06:34:02.805Z,3.90
2018-04-26T06:36:31.086Z,3.50
2018-04-26T06:38:59.434Z,3.30
2018-04-26T06:41:27.882Z,3.57
2018-04-26T06:43:56.197Z,3.00
2018-04-26T06:46:24.477Z,3.07
2018-04-26T06:48:52.787Z,3.20
2018-04-26T06:51:21.019Z,2.80
2018-04-26T06:53:49.290Z,3.30
2018-04-26T06:56:17.579Z,3.03
2018-04-26T06:58:45.839Z,2.90
2018-04-26T07:01:14.093Z,2.60
2018-04-26T07:03:42.387Z,2.30
2018-04-26T07:06:10.648Z,2.90
2018-04-26T07:08:38.962Z,2.77
2018-04-26T07:11:07.195Z,2.80
2018-04-26T07:13:35.459Z,2.87
2018-04-26T07:16:03.740Z,1.50
2018-04-26T07:18:32.008Z,2.57
2018-04-26T07:21:00.403Z,2.37
2018-04-26T07:23:28.679Z,3.77
2018-04-26T07:25:57.144Z,2.53
2018-04-26T07:28:25.398Z,2.40
2018-04-26T07:30:53.674Z,2.80
2018-04-26T07:33:21.970Z,2.90
2018-04-26T07:35:50.230Z,2.63
2018-04-26T07:38:18.531Z,2.80
2018-04-26T07:40:46.944Z,1.90
2018-04-26T07:43:15.206Z,1.60
2018-04-26T07:45:43.499Z,1.80
2018-04-26T07:48:11.745Z,2.00
2018-04-26T07:50:40.032Z,2.30
2018-04-26T07:53:08.367Z,1.80
2018-04-26T07:55:36.604Z,2.00
2018-04-26T07:58:04.849Z,1.90
2018-04-26T08:00:33.119Z,2.00
2018-04-26T08:03:01.374Z,1.90
2018-04-26T08:05:29.657Z,1.60
2018-04-26T08:07:57.978Z,1.97
2018-04-26T08:10:26.238Z,1.70
2018-04-26T08:12:54.566Z,1.27
2018-04-26T08:15:22.792Z,1.50
2018-04-26T08:17:51.074Z,1.70
2018-04-26T08:20:19.343Z,1.57
2018-04-26T08:22:47.672Z,1.50
2018-04-26T08:25:15.926Z,1.67
2018-04-26T08:27:44.354Z,1.90
2018-04-26T08:30:12.649Z,1.63
2018-04-26T08:32:40.958Z,1.63
2018-04-26T08:35:09.233Z,1.80
2018-04-26T08:37:37.506Z,1.30
2018-04-26T08:40:06.122Z,1.97
2018-04-26T08:42:34.399Z,1.83
2018-04-26T08:45:03.282Z,1.43
2018-04-26T08:47:31.628Z,2.00
2018-04-26T08:49:59.901Z,1.67
2018-04-26T08:52:28.304Z,1.10
2018-04-26T08:54:56.450Z,1.93
2018-04-26T08:57:24.707Z,1.80
2018-04-26T08:59:52.986Z,1.80
2018-04-26T09:02:21.250Z,1.70
2018-04-26T09:04:49.544Z,1.27
2018-04-26T09:07:17.794Z,1.90
2018-04-26T09:09:46.087Z,1.30
2018-04-26T09:12:14.429Z,1.70
2018-04-26T09:14:42.723Z,1.90
2018-04-26T09:17:11.938Z,1.30
2018-04-26T09:19:40.230Z,1.50
2018-04-26T09:22:08.593Z,1.40
2018-04-26T09:24:36.928Z,1.70
2018-04-26T09:27:05.228Z,2.10
2018-04-26T09:29:33.494Z,1.70
2018-04-26T09:32:02.134Z,1.60
2018-04-26T09:34:31.539Z,1.50
2018-04-26T09:37:00.113Z,1.93
2018-04-26T09:39:28.429Z,1.50
2018-04-26T09:41:56.715Z,1.57
2018-04-26T09:44:25.146Z,1.80
2018-04-26T09:46:53.368Z,2.20
2018-04-26T09:49:21.648Z,2.70
2018-04-26T09:51:49.926Z,2.83
2018-04-26T09:54:18.254Z,3.20
2018-04-26T09:56:46.567Z,2.90
2018-04-26T09:59:14.855Z,2.03
2018-04-26T10:01:43.346Z,2.80
2018-04-26T10:04:14.517Z,2.90
2018-04-26T10:06:48.462Z,2.43
2018-04-26T10:09:16.842Z,2.30
2018-04-26T10:11:45.144Z,2.10
2018-04-26T10:14:13.434Z,1.80
2018-04-26T10:16:41.683Z,2.77
2018-04-26T10:19:09.983Z,2.47
2018-04-26T10:21:38.293Z,2.63
2018-04-26T10:24:06.658Z,2.70
2018-04-26T10:26:34.992Z,2.73
2018-04-26T10:29:03.270Z,2.30
2018-04-26T10:31:31.569Z,2.13
2018-04-26T10:33:59.919Z,1.93
2018-04-26T10:36:28.186Z,2.50
2018-04-26T10:38:56.736Z,1.60
2018-04-26T10:41:24.978Z,1.90
2018-04-26T10:43:53.263Z,1.77
2018-04-26T10:46:21.527Z,1.50
2018-04-26T10:48:49.836Z,1.77
2018-04-26T10:51:18.094Z,1.40
2018-04-26T10:53:46.386Z,1.67
2018-04-26T10:56:14.659Z,2.07
2018-04-26T10:58:43.213Z,1.80
2018-04-26T11:01:11.538Z,1.93
2018-04-26T11:03:40.898Z,1.87
2018-04-26T11:06:09.198Z,1.80
2018-04-26T11:08:37.453Z,2.10
2018-04-26T11:11:06.010Z,2.00
2018-04-26T11:13:34.270Z,2.87
2018-04-26T11:16:02.561Z,1.77
2018-04-26T11:18:31.503Z,1.40
2018-04-26T11:20:59.778Z,1.60
2018-04-26T11:23:28.059Z,1.50
2018-04-26T11:25:56.334Z,1.63
2018-04-26T11:28:24.596Z,1.30
2018-04-26T11:30:52.988Z,1.60
2018-04-26T11:33:21.233Z,1.83
2018-04-26T11:35:49.511Z,1.93
2018-04-26T11:38:17.913Z,1.70
2018-04-26T11:40:46.325Z,1.67
2018-04-26T11:43:14.647Z,1.60
2018-04-26T11:45:43.018Z,1.70
2018-04-26T11:48:11.329Z,1.97
2018-04-26T11:50:39.662Z,1.60
2018-04-26T11:53:07.915Z,1.50
2018-04-26T11:55:36.185Z,1.50
2018-04-26T11:58:04.866Z,1.90
2018-04-26T12:00:33.303Z,1.50
2018-04-26T12:03:02.049Z,1.37
2018-04-26T12:05:30.425Z,1.83
2018-04-26T12:07:59.297Z,2.00
2018-04-26T12:10:27.702Z,2.50
2018-04-26T12:12:55.962Z,1.83
2018-04-26T12:15:24.214Z,1.87
2018-04-26T12:17:52.519Z,2.10
2018-04-26T12:20:20.786Z,2.10
2018-04-26T12:22:49.080Z,1.60
2018-04-26T12:25:17.323Z,1.40
2018-04-26T12:27:45.766Z,2.60
2018-04-26T12:30:14.148Z,2.00
2018-04-26T12:32:43.717Z,1.43
2018-04-26T12:35:12.481Z,1.87
2018-04-26T12:37:40.780Z,1.30
2018-04-26T12:40:09.083Z,1.57
2018-04-26T12:42:37.376Z,1.43
2018-04-26T12:45:05.643Z,1.40
2018-04-26T12:47:33.932Z,1.73
2018-04-26T12:50:02.538Z,1.47
2018-04-26T12:52:30.830Z,1.83
2018-04-26T12:54:59.100Z,1.67
2018-04-26T12:57:27.369Z,2.00
2018-04-26T12:59:55.625Z,1.80
2018-04-26T13:02:24.122Z,2.10
2018-04-26T13:04:52.415Z,1.67
2018-04-26T13:07:20.676Z,2.13
2018-04-26T13:09:49.015Z,2.07
2018-04-26T13:12:17.388Z,1.53
2018-04-26T13:14:45.690Z,1.70
2018-04-26T13:17:14.010Z,1.80
2018-04-26T13:19:42.304Z,1.80
2018-04-26T13:22:10.662Z,1.27
2018-04-26T13:24:38.948Z,1.70
2018-04-26T13:27:07.296Z,1.67
2018-04-26T13:29:35.704Z,1.40
2018-04-26T13:32:03.981Z,1.60
2018-04-26T13:34:32.314Z,1.57
2018-04-26T13:37:02.008Z,1.90
2018-04-26T13:39:30.292Z,4.20
2018-04-26T13:41:58.592Z,2.00
2018-04-26T13:44:28.333Z,2.10
2018-04-26T13:46:56.641Z,2.10
2018-04-26T13:49:24.945Z,1.80
2018-04-26T13:51:53.276Z,1.90
2018-04-26T13:54:22.502Z,2.10
2018-04-26T13:56:50.858Z,1.50
2018-04-26T13:59:19.105Z,1.73
2018-04-26T14:01:47.411Z,2.43
2018-04-26T14:04:15.693Z,1.90
2018-04-26T14:06:44.038Z,1.63
2018-04-26T14:09:13.152Z,1.70
2018-04-26T14:11:41.976Z,2.00
2018-04-26T14:14:10.512Z,2.47
2018-04-26T14:16:39.277Z,1.77
2018-04-26T14:19:07.586Z,1.87
2018-04-26T14:21:35.830Z,1.97
2018-04-26T14:24:04.344Z,2.20
2018-04-26T14:26:33.085Z,1.97
2018-04-26T14:29:01.409Z,1.70
2018-04-26T14:31:29.661Z,2.03
2018-04-26T14:33:57.978Z,1.83
2018-04-26T14:36:26.290Z,1.93
2018-04-26T14:38:54.662Z,1.80
2018-04-26T14:41:24.037Z,1.30
2018-04-26T14:43:53.212Z,2.03
2018-04-26T14:46:24.022Z,1.80
2018-04-26T14:48:52.347Z,1.60
2018-04-26T14:51:20.757Z,1.73
2018-04-26T14:53:50.083Z,1.80
2018-04-26T14:56:18.447Z,1.50
2018-04-26T14:58:47.610Z,1.40
2018-04-26T15:01:16.016Z,1.93
2018-04-26T15:03:44.343Z,1.57
2018-04-26T15:06:12.699Z,2.20
2018-04-26T15:08:40.986Z,1.70
2018-04-26T15:11:09.351Z,1.90
2018-04-26T15:13:37.599Z,2.73
2018-04-26T15:16:05.895Z,2.33
2018-04-26T15:18:34.242Z,2.33
2018-04-26T15:21:02.531Z,2.40
2018-04-26T15:23:31.004Z,1.70
2018-04-26T15:25:59.257Z,2.00
2018-04-26T15:28:27.589Z,2.50
2018-04-26T15:30:55.931Z,1.73
2018-04-26T15:33:24.330Z,1.83
2018-04-26T15:35:53.777Z,1.80
2018-04-26T15:38:22.049Z,2.10
2018-04-26T15:40:51.618Z,1.80
2018-04-26T15:43:20.877Z,2.00
2018-04-26T15:45:49.126Z,2.23
2018-04-26T15:48:17.418Z,2.30
2018-04-26T15:50:55.686Z,2.87
2018-04-26T15:53:35.736Z,2.20
2018-04-26T15:56:15.739Z,1.73
2018-04-26T16:02:26.874Z,2.93
2018-04-26T16:05:12.722Z,1.60
2018-04-26T16:07:58.427Z,2.50
2018-04-26T16:10:44.183Z,1.50
2018-04-26T16:13:29.976Z,1.93
2018-04-26T16:19:34.246Z,2.03
2018-04-26T16:22:19.855Z,2.50
2018-04-26T16:24:59.958Z,1.70
2018-04-26T16:27:44.150Z,2.00
2018-04-26T16:30:24.123Z,1.80
2018-04-26T16:33:05.218Z,2.20
2018-04-26T16:35:45.880Z,1.70
2018-04-26T16:38:26.027Z,2.00
2018-04-26T16:40:54.316Z,2.00
2018-04-26T16:43:22.620Z,1.60
2018-04-26T16:45:51.144Z,2.13
2018-04-26T16:48:19.585Z,2.10
2018-04-26T16:50:47.856Z,2.00
2018-04-26T16:53:16.143Z,2.07
2018-04-26T16:55:44.498Z,1.73
2018-04-26T16:58:12.789Z,1.90
2018-04-26T17:00:41.075Z,1.70
2018-04-26T17:03:09.337Z,2.00
2018-04-26T17:05:37.727Z,2.17
2018-04-26T17:08:06.058Z,1.43
2018-04-26T17:10:34.331Z,2.10
2018-04-26T17:13:02.587Z,1.90
2018-04-26T17:15:30.869Z,1.60
2018-04-26T17:17:59.151Z,1.57
2018-04-26T17:20:27.424Z,1.63
2018-04-26T17:22:55.688Z,1.87
2018-04-26T17:25:23.990Z,1.80
2018-04-26T17:27:52.354Z,1.93
2018-04-26T17:30:20.668Z,2.03
2018-04-26T17:32:49.071Z,1.37
2018-04-26T17:35:17.738Z,2.47
2018-04-26T17:37:46.219Z,1.80
2018-04-26T17:40:14.577Z,1.83
2018-04-26T17:42:42.794Z,1.63
2018-04-26T17:45:11.118Z,1.60
2018-04-26T17:47:39.364Z,1.97
2018-04-26T17:50:07.641Z,1.90
2018-04-26T17:52:35.912Z,2.20
2018-04-26T17:55:05.187Z,1.57
2018-04-26T17:57:33.496Z,1.57
2018-04-26T18:00:01.758Z,1.80
2018-04-26T18:02:30.021Z,1.87
2018-04-26T18:04:58.307Z,2.33
2018-04-26T18:07:27.528Z,2.00
2018-04-26T18:09:55.886Z,1.80
2018-04-26T18:12:24.126Z,2.23
2018-04-26T18:14:52.437Z,2.30
2018-04-26T18:17:20.724Z,2.00
2018-04-26T18:19:49.002Z,1.93
2018-04-26T18:22:17.307Z,1.87
2018-04-26T18:24:45.633Z,2.33
2018-04-26T18:27:13.893Z,1.90
2018-04-26T18:29:42.168Z,2.47
2018-04-26T18:32:11.334Z,2.40
2018-04-26T18:34:39.571Z,2.60
2018-04-26T18:37:07.834Z,2.70
2018-04-26T18:39:36.151Z,2.13
2018-04-26T18:42:04.394Z,2.00
2018-04-26T18:44:32.658Z,2.50
2018-04-26T18:47:00.939Z,2.13
2018-04-26T18:49:29.287Z,2.20
2018-04-26T18:51:57.554Z,2.60
2018-04-26T18:54:25.843Z,2.40
2018-04-26T18:56:54.112Z,2.73
2018-04-26T18:59:22.413Z,2.50
2018-04-26T19:01:50.668Z,2.00
2018-04-26T19:04:19.942Z,2.63
2018-04-26T19:06:48.202Z,2.40
2018-04-26T19:09:16.574Z,3.00
2018-04-26T19:11:45.233Z,2.80
2018-04-26T19:14:13.537Z,3.70
2018-04-26T19:16:41.951Z,2.77
2018-04-26T19:19:10.262Z,2.27
2018-04-26T19:21:38.549Z,3.17
2018-04-26T19:24:06.855Z,3.03
2018-04-26T19:26:35.135Z,2.87
2018-04-26T19:29:03.425Z,2.90
2018-04-26T19:31:31.700Z,2.87
2018-04-26T19:34:00.054Z,2.60
2018-04-26T19:36:28.295Z,2.83
2018-04-26T19:38:56.805Z,3.00
2018-04-26T19:41:25.133Z,2.60
2018-04-26T19:43:53.412Z,2.47
2018-04-26T19:46:21.694Z,3.47
2018-04-26T19:48:49.980Z,3.03
2018-04-26T19:51:18.303Z,3.70
2018-04-26T19:53:46.616Z,2.37
2018-04-26T19:56:14.903Z,2.67
2018-04-26T19:58:43.191Z,2.63
2018-04-26T20:01:11.550Z,2.70
2018-04-26T20:03:42.733Z,2.60
2018-04-26T20:06:11.102Z,2.50
2018-04-26T20:08:39.326Z,2.37
2018-04-26T20:11:07.668Z,2.17
2018-04-26T20:13:35.936Z,2.20
2018-04-26T20:16:04.216Z,2.50
2018-04-26T20:18:32.938Z,2.80
2018-04-26T20:21:01.226Z,2.20
2018-04-26T20:23:29.487Z,2.40
2018-04-26T20:25:57.782Z,2.63
2018-04-26T20:28:26.079Z,2.30
2018-04-26T20:30:54.367Z,2.50
2018-04-26T20:33:22.683Z,1.90
2018-04-26T20:35:50.997Z,2.27
2018-04-26T20:38:19.270Z,2.20
2018-04-26T20:40:47.632Z,2.53
2018-04-26T20:43:16.121Z,2.07
2018-04-26T20:45:44.392Z,2.30
2018-04-26T20:48:13.487Z,2.90
2018-04-26T20:50:41.805Z,2.43
2018-04-26T20:53:10.978Z,2.67
2018-04-26T20:55:39.212Z,2.60
2018-04-26T20:58:07.494Z,2.83
2018-04-26T21:00:35.763Z,2.70
2018-04-26T21:03:04.046Z,3.40
2018-04-26T21:05:32.320Z,2.60
2018-04-26T21:08:00.656Z,2.27
2018-04-26T21:10:29.521Z,2.60
2018-04-26T21:12:58.713Z,2.50
2018-04-26T21:15:27.012Z,2.20
2018-04-26T21:17:55.306Z,2.80
2018-04-26T21:20:23.575Z,2.43
2018-04-26T21:22:51.943Z,2.23
2018-04-26T21:25:21.111Z,2.03
2018-04-26T21:27:49.405Z,2.10
2018-04-26T21:30:17.666Z,1.70
2018-04-26T21:32:45.938Z,3.03
2018-04-26T21:35:14.236Z,2.70
2018-04-26T21:37:42.558Z,2.10
2018-04-26T21:40:10.867Z,2.00
2018-04-26T21:42:39.146Z,2.23
2018-04-26T21:45:07.611Z,2.07
2018-04-26T21:47:35.957Z,2.13
2018-04-26T21:50:09.811Z,2.10
2018-04-26T21:52:43.755Z,2.20
2018-04-26T21:55:17.679Z,2.20
2018-04-26T21:57:51.606Z,2.77
2018-04-26T22:00:25.602Z,2.57
2018-04-26T22:02:53.348Z,2.00
2018-04-26T22:05:27.527Z,2.70
2018-04-26T22:07:55.810Z,2.70
2018-04-26T22:10:24.067Z,2.70
2018-04-26T22:12:52.365Z,2.53
2018-04-26T22:15:20.707Z,2.30
2018-04-26T22:17:49.925Z,2.00
2018-04-26T22:20:18.176Z,2.10
2018-04-26T22:22:46.490Z,2.27
2018-04-26T22:25:14.760Z,2.60
2018-04-26T22:27:43.107Z,2.30
2018-04-26T22:30:11.465Z,2.30
2018-04-26T22:32:39.743Z,2.30
2018-04-26T22:35:07.995Z,2.37
2018-04-26T22:37:36.278Z,2.43
2018-04-26T22:40:04.546Z,2.77
2018-04-26T22:42:33.388Z,2.60
2018-04-26T22:45:01.722Z,2.70
2018-04-26T22:47:29.983Z,2.10
2018-04-26T22:49:58.493Z,2.30
2018-04-26T22:52:26.718Z,2.70
2018-04-26T22:54:54.980Z,2.60
2018-04-26T22:57:23.493Z,2.10
2018-04-26T22:59:51.750Z,3.03
2018-04-26T23:02:20.027Z,2.93
2018-04-26T23:04:49.065Z,2.60
2018-04-26T23:07:17.378Z,2.80
2018-04-26T23:09:45.754Z,2.40
2018-04-26T23:12:14.066Z,2.50
2018-04-26T23:14:42.335Z,2.50
2018-04-26T23:17:10.640Z,2.97
2018-04-26T23:19:38.946Z,2.63
2018-04-26T23:22:07.228Z,2.60
2018-04-26T23:24:35.474Z,2.40
2018-04-26T23:27:03.809Z,2.40
2018-04-26T23:29:32.160Z,2.83
2018-04-26T23:32:00.461Z,2.53
2018-04-26T23:34:28.708Z,1.97
2018-04-26T23:36:56.999Z,2.77
2018-04-26T23:39:25.311Z,2.60
2018-04-26T23:41:53.598Z,2.27
2018-04-26T23:44:21.866Z,2.67
2018-04-26T23:46:50.143Z,2.33
2018-04-26T23:49:18.421Z,3.00
2018-04-26T23:51:46.718Z,2.13
2018-04-26T23:54:15.007Z,2.40
2018-04-26T23:56:43.351Z,2.37
2018-04-26T23:59:11.585Z,2.57
